sensor_id;sensor_type;location;lat;lon;timestamp;P1;durP1;ratioP1;P2;durP2;ratioP2
4084;SDS011;2057;50.858;6.572;2024-03-23T00:56:02;21.27;;;8.30;;
4084;SDS011;2057;50.858;6.572;2024-03-23T00:58:31;14.23;;;5.67;;
4084;SDS011;2057;50.858;6.572;2024-03-23T01:01:02;25.37;;;6.03;;
4084;SDS011;2057;50.858;6.572;2024-03-23T01:03:29;17.47;;;5.87;;
4084;SDS011;2057;50.858;6.572;2024-03-23T01:06:01;21.00;;;6.83;;
4084;SDS011;2057;50.858;6.572;2024-03-23T01:08:27;21.20;;;7.20;;
4084;SDS011;2057;50.858;6.572;2024-03-23T01:10:59;22.20;;;5.60;;
4084;SDS011;2057;50.858;6.572;2024-03-23T01:13:28;13.47;;;4.93;;
4084;SDS011;2057;50.858;6.572;2024-03-23T01:16:05;21.25;;;5.05;;
4084;SDS011;2057;50.858;6.572;2024-03-23T01:18:30;11.02;;;4.28;;
4084;SDS011;2057;50.858;6.572;2024-03-23T01:20:59;19.70;;;6.90;;
4084;SDS011;2057;50.858;6.572;2024-03-23T01:23:24;14.33;;;3.90;;
4084;SDS011;2057;50.858;6.572;2024-03-23T01:25:57;15.90;;;4.87;;
4084;SDS011;2057;50.858;6.572;2024-03-23T01:28:27;12.63;;;3.50;;
4084;SDS011;2057;50.858;6.572;2024-03-23T01:30:53;12.27;;;4.00;;
4084;SDS011;2057;50.858;6.572;2024-03-23T01:33:23;9.02;;;3.47;;
4084;SDS011;2057;50.858;6.572;2024-03-23T01:35:51;12.60;;;4.80;;
4084;SDS011;2057;50.858;6.572;2024-03-23T01:38:16;10.90;;;3.97;;
4084;SDS011;2057;50.858;6.572;2024-03-23T01:40:42;24.83;;;4.30;;
4084;SDS011;2057;50.858;6.572;2024-03-23T01:43:09;11.57;;;4.37;;
4084;SDS011;2057;50.858;6.572;2024-03-23T01:45:54;14.63;;;4.30;;
4084;SDS011;2057;50.858;6.572;2024-03-23T01:48:23;15.38;;;3.67;;
4084;SDS011;2057;50.858;6.572;2024-03-23T01:50:49;21.45;;;5.55;;
4084;SDS011;2057;50.858;6.572;2024-03-23T01:53:14;12.77;;;4.67;;
4084;SDS011;2057;50.858;6.572;2024-03-23T01:55:42;21.65;;;4.57;;
4084;SDS011;2057;50.858;6.572;2024-03-23T01:58:08;20.17;;;5.00;;
4084;SDS011;2057;50.858;6.572;2024-03-23T02:00:36;18.48;;;5.38;;
4084;SDS011;2057;50.858;6.572;2024-03-23T02:03:21;19.42;;;4.78;;
4084;SDS011;2057;50.858;6.572;2024-03-23T02:05:52;13.98;;;2.90;;
4084;SDS011;2057;50.858;6.572;2024-03-23T02:08:21;11.65;;;3.45;;
4084;SDS011;2057;50.858;6.572;2024-03-23T02:10:50;13.35;;;3.47;;
4084;SDS011;2057;50.858;6.572;2024-03-23T02:13:16;12.88;;;3.88;;
4084;SDS011;2057;50.858;6.572;2024-03-23T02:15:48;10.90;;;3.00;;
4084;SDS011;2057;50.858;6.572;2024-03-23T02:18:14;9.60;;;3.03;;
4084;SDS011;2057;50.858;6.572;2024-03-23T02:20:47;10.23;;;2.92;;
4084;SDS011;2057;50.858;6.572;2024-03-23T02:23:22;15.00;;;2.97;;
4084;SDS011;2057;50.858;6.572;2024-03-23T02:25:49;5.63;;;2.22;;
4084;SDS011;2057;50.858;6.572;2024-03-23T02:28:20;14.73;;;2.45;;
4084;SDS011;2057;50.858;6.572;2024-03-23T02:30:56;14.88;;;3.63;;
4084;SDS011;2057;50.858;6.572;2024-03-23T02:33:22;16.73;;;3.33;;
4084;SDS011;2057;50.858;6.572;2024-03-23T02:35:55;6.82;;;2.75;;
4084;SDS011;2057;50.858;6.572;2024-03-23T02:38:26;8.98;;;2.08;;
4084;SDS011;2057;50.858;6.572;2024-03-23T02:40:51;12.55;;;2.63;;
4084;SDS011;2057;50.858;6.572;2024-03-23T02:43:20;16.27;;;3.28;;
4084;SDS011;2057;50.858;6.572;2024-03-23T02:45:45;22.27;;;3.20;;
4084;SDS011;2057;50.858;6.572;2024-03-23T02:48:10;9.20;;;3.30;;
4084;SDS011;2057;50.858;6.572;2024-03-23T02:50:36;11.73;;;2.93;;
4084;SDS011;2057;50.858;6.572;2024-03-23T02:53:03;17.15;;;3.55;;
4084;SDS011;2057;50.858;6.572;2024-03-23T02:55:29;20.97;;;3.30;;
4084;SDS011;2057;50.858;6.572;2024-03-23T02:57:54;18.27;;;3.40;;
4084;SDS011;2057;50.858;6.572;2024-03-23T03:00:26;14.33;;;2.70;;
4084;SDS011;2057;50.858;6.572;2024-03-23T03:02:51;20.88;;;3.45;;
4084;SDS011;2057;50.858;6.572;2024-03-23T03:05:19;16.00;;;3.42;;
4084;SDS011;2057;50.858;6.572;2024-03-23T03:07:46;13.80;;;3.00;;
4084;SDS011;2057;50.858;6.572;2024-03-23T03:10:14;22.67;;;3.20;;
4084;SDS011;2057;50.858;6.572;2024-03-23T03:12:42;9.05;;;2.35;;
4084;SDS011;2057;50.858;6.572;2024-03-23T03:15:07;11.30;;;2.80;;
4084;SDS011;2057;50.858;6.572;2024-03-23T03:17:35;8.65;;;2.50;;
4084;SDS011;2057;50.858;6.572;2024-03-23T03:20:01;16.03;;;2.47;;
4084;SDS011;2057;50.858;6.572;2024-03-23T03:22:29;11.95;;;3.22;;
4084;SDS011;2057;50.858;6.572;2024-03-23T03:24:55;16.77;;;2.93;;
4084;SDS011;2057;50.858;6.572;2024-03-23T03:27:20;15.60;;;2.43;;
4084;SDS011;2057;50.858;6.572;2024-03-23T03:29:48;14.93;;;3.45;;
4084;SDS011;2057;50.858;6.572;2024-03-23T03:32:14;22.13;;;2.87;;
4084;SDS011;2057;50.858;6.572;2024-03-23T03:34:39;18.43;;;3.60;;
4084;SDS011;2057;50.858;6.572;2024-03-23T03:37:12;8.70;;;2.60;;
4084;SDS011;2057;50.858;6.572;2024-03-23T03:39:37;30.73;;;3.95;;
4084;SDS011;2057;50.858;6.572;2024-03-23T03:42:02;11.80;;;2.77;;
4084;SDS011;2057;50.858;6.572;2024-03-23T03:44:33;13.02;;;3.53;;
4084;SDS011;2057;50.858;6.572;2024-03-23T03:46:59;12.73;;;3.30;;
4084;SDS011;2057;50.858;6.572;2024-03-23T03:49:24;12.70;;;3.20;;
4084;SDS011;2057;50.858;6.572;2024-03-23T03:51:54;14.48;;;3.33;;
4084;SDS011;2057;50.858;6.572;2024-03-23T03:54:22;16.27;;;3.30;;
4084;SDS011;2057;50.858;6.572;2024-03-23T03:56:47;17.33;;;3.70;;
4084;SDS011;2057;50.858;6.572;2024-03-23T03:59:18;19.10;;;3.20;;
4084;SDS011;2057;50.858;6.572;2024-03-23T04:01:51;15.18;;;3.45;;
4084;SDS011;2057;50.858;6.572;2024-03-23T04:04:17;17.83;;;3.60;;
4084;SDS011;2057;50.858;6.572;2024-03-23T04:06:43;15.90;;;3.57;;
4084;SDS011;2057;50.858;6.572;2024-03-23T04:09:09;16.00;;;3.65;;
4084;SDS011;2057;50.858;6.572;2024-03-23T04:11:37;10.50;;;3.20;;
4084;SDS011;2057;50.858;6.572;2024-03-23T04:14:03;16.55;;;3.25;;
4084;SDS011;2057;50.858;6.572;2024-03-23T04:16:28;15.07;;;2.60;;
4084;SDS011;2057;50.858;6.572;2024-03-23T04:18:57;10.88;;;2.90;;
4084;SDS011;2057;50.858;6.572;2024-03-23T04:21:29;12.90;;;3.15;;
4084;SDS011;2057;50.858;6.572;2024-03-23T04:23:57;16.10;;;3.30;;
4084;SDS011;2057;50.858;6.572;2024-03-23T04:26:25;5.97;;;2.60;;
4084;SDS011;2057;50.858;6.572;2024-03-23T04:28:53;12.03;;;3.20;;
4084;SDS011;2057;50.858;6.572;2024-03-23T04:31:21;8.60;;;2.90;;
4084;SDS011;2057;50.858;6.572;2024-03-23T04:33:46;19.70;;;3.63;;
4084;SDS011;2057;50.858;6.572;2024-03-23T04:36:12;22.40;;;2.87;;
4084;SDS011;2057;50.858;6.572;2024-03-23T04:38:45;17.17;;;3.65;;
4084;SDS011;2057;50.858;6.572;2024-03-23T04:41:11;23.85;;;3.88;;
4084;SDS011;2057;50.858;6.572;2024-03-23T04:43:38;15.30;;;3.40;;
4084;SDS011;2057;50.858;6.572;2024-03-23T04:46:04;30.47;;;4.27;;
4084;SDS011;2057;50.858;6.572;2024-03-23T04:48:29;13.83;;;3.40;;
4084;SDS011;2057;50.858;6.572;2024-03-23T04:50:55;17.47;;;3.93;;
4084;SDS011;2057;50.858;6.572;2024-03-23T04:53:25;10.00;;;3.33;;
4084;SDS011;2057;50.858;6.572;2024-03-23T04:55:56;10.27;;;4.00;;
4084;SDS011;2057;50.858;6.572;2024-03-23T04:58:29;15.10;;;5.22;;
4084;SDS011;2057;50.858;6.572;2024-03-23T05:00:54;19.43;;;3.73;;
4084;SDS011;2057;50.858;6.572;2024-03-23T05:03:25;16.02;;;3.67;;
4084;SDS011;2057;50.858;6.572;2024-03-23T05:05:50;13.63;;;2.57;;
4084;SDS011;2057;50.858;6.572;2024-03-23T05:08:19;10.90;;;3.35;;
4084;SDS011;2057;50.858;6.572;2024-03-23T05:10:44;14.50;;;3.80;;
4084;SDS011;2057;50.858;6.572;2024-03-23T05:13:10;18.67;;;4.35;;
4084;SDS011;2057;50.858;6.572;2024-03-23T05:15:41;18.88;;;3.53;;
4084;SDS011;2057;50.858;6.572;2024-03-23T05:18:11;10.48;;;3.08;;
4084;SDS011;2057;50.858;6.572;2024-03-23T05:20:39;21.50;;;3.35;;
4084;SDS011;2057;50.858;6.572;2024-03-23T05:23:04;20.53;;;4.07;;
4084;SDS011;2057;50.858;6.572;2024-03-23T05:25:30;10.43;;;3.43;;
4084;SDS011;2057;50.858;6.572;2024-03-23T05:27:55;11.73;;;4.83;;
4084;SDS011;2057;50.858;6.572;2024-03-23T05:30:20;18.13;;;4.70;;
4084;SDS011;2057;50.858;6.572;2024-03-23T05:32:48;22.25;;;4.57;;
4084;SDS011;2057;50.858;6.572;2024-03-23T05:35:14;26.00;;;4.13;;
4084;SDS011;2057;50.858;6.572;2024-03-23T05:37:41;13.40;;;3.83;;
4084;SDS011;2057;50.858;6.572;2024-03-23T05:40:07;14.40;;;4.88;;
4084;SDS011;2057;50.858;6.572;2024-03-23T05:42:34;14.77;;;4.03;;
4084;SDS011;2057;50.858;6.572;2024-03-23T05:44:59;20.43;;;4.10;;
4084;SDS011;2057;50.858;6.572;2024-03-23T05:47:30;12.73;;;3.47;;
4084;SDS011;2057;50.858;6.572;2024-03-23T05:49:56;18.23;;;5.80;;
4084;SDS011;2057;50.858;6.572;2024-03-23T05:52:24;38.03;;;5.23;;
4084;SDS011;2057;50.858;6.572;2024-03-23T05:54:58;19.70;;;5.90;;
4084;SDS011;2057;50.858;6.572;2024-03-23T05:57:23;18.93;;;5.00;;
4084;SDS011;2057;50.858;6.572;2024-03-23T05:59:51;17.33;;;5.03;;
4084;SDS011;2057;50.858;6.572;2024-03-23T06:02:19;25.93;;;4.90;;
4084;SDS011;2057;50.858;6.572;2024-03-23T06:04:45;37.05;;;4.35;;
4084;SDS011;2057;50.858;6.572;2024-03-23T06:07:13;18.73;;;5.47;;
4084;SDS011;2057;50.858;6.572;2024-03-23T06:09:40;16.17;;;4.05;;
4084;SDS011;2057;50.858;6.572;2024-03-23T06:12:15;22.25;;;5.00;;
4084;SDS011;2057;50.858;6.572;2024-03-23T06:14:43;16.63;;;4.82;;
4084;SDS011;2057;50.858;6.572;2024-03-23T06:17:09;20.10;;;4.22;;
4084;SDS011;2057;50.858;6.572;2024-03-23T06:19:36;25.25;;;4.10;;
4084;SDS011;2057;50.858;6.572;2024-03-23T06:22:02;19.67;;;5.37;;
4084;SDS011;2057;50.858;6.572;2024-03-23T06:24:30;27.03;;;5.00;;
4084;SDS011;2057;50.858;6.572;2024-03-23T06:27:00;21.70;;;5.05;;
4084;SDS011;2057;50.858;6.572;2024-03-23T06:29:29;22.50;;;6.10;;
4084;SDS011;2057;50.858;6.572;2024-03-23T06:31:57;17.65;;;4.25;;
4084;SDS011;2057;50.858;6.572;2024-03-23T06:34:22;19.03;;;4.70;;
4084;SDS011;2057;50.858;6.572;2024-03-23T06:36:50;21.00;;;4.57;;
4084;SDS011;2057;50.858;6.572;2024-03-23T06:39:18;21.30;;;6.18;;
4084;SDS011;2057;50.858;6.572;2024-03-23T06:41:51;19.90;;;5.10;;
4084;SDS011;2057;50.858;6.572;2024-03-23T06:44:18;15.07;;;5.88;;
4084;SDS011;2057;50.858;6.572;2024-03-23T06:46:46;22.60;;;6.80;;
4084;SDS011;2057;50.858;6.572;2024-03-23T06:49:14;28.85;;;7.20;;
4084;SDS011;2057;50.858;6.572;2024-03-23T06:51:42;30.50;;;7.85;;
4084;SDS011;2057;50.858;6.572;2024-03-23T06:54:09;22.80;;;8.77;;
4084;SDS011;2057;50.858;6.572;2024-03-23T06:56:35;24.67;;;7.60;;
4084;SDS011;2057;50.858;6.572;2024-03-23T06:59:02;32.17;;;8.05;;
4084;SDS011;2057;50.858;6.572;2024-03-23T07:01:33;15.98;;;7.90;;
4084;SDS011;2057;50.858;6.572;2024-03-23T07:04:09;21.23;;;9.18;;
4084;SDS011;2057;50.858;6.572;2024-03-23T07:06:37;27.38;;;10.95;;
4084;SDS011;2057;50.858;6.572;2024-03-23T07:09:07;29.23;;;9.50;;
4084;SDS011;2057;50.858;6.572;2024-03-23T07:11:32;32.10;;;10.47;;
4084;SDS011;2057;50.858;6.572;2024-03-23T07:13:58;21.13;;;10.20;;
4084;SDS011;2057;50.858;6.572;2024-03-23T07:16:26;35.15;;;10.82;;
4084;SDS011;2057;50.858;6.572;2024-03-23T07:18:56;35.35;;;9.98;;
4084;SDS011;2057;50.858;6.572;2024-03-23T07:21:25;21.00;;;10.52;;
4084;SDS011;2057;50.858;6.572;2024-03-23T07:23:58;28.65;;;10.20;;
4084;SDS011;2057;50.858;6.572;2024-03-23T07:26:26;40.28;;;11.63;;
4084;SDS011;2057;50.858;6.572;2024-03-23T07:28:53;28.00;;;9.85;;
4084;SDS011;2057;50.858;6.572;2024-03-23T07:31:21;25.00;;;8.45;;
4084;SDS011;2057;50.858;6.572;2024-03-23T07:33:52;10.35;;;4.13;;
4084;SDS011;2057;50.858;6.572;2024-03-23T07:36:22;14.50;;;3.63;;
4084;SDS011;2057;50.858;6.572;2024-03-23T07:38:50;6.18;;;2.55;;
4084;SDS011;2057;50.858;6.572;2024-03-23T07:41:20;2.85;;;1.90;;
4084;SDS011;2057;50.858;6.572;2024-03-23T07:43:54;5.78;;;2.00;;
4084;SDS011;2057;50.858;6.572;2024-03-23T07:46:28;11.00;;;1.85;;
4084;SDS011;2057;50.858;6.572;2024-03-23T07:48:54;10.30;;;1.50;;
4084;SDS011;2057;50.858;6.572;2024-03-23T07:51:24;8.57;;;2.03;;
4084;SDS011;2057;50.858;6.572;2024-03-23T07:53:49;4.57;;;2.00;;
4084;SDS011;2057;50.858;6.572;2024-03-23T07:56:18;15.85;;;3.08;;
4084;SDS011;2057;50.858;6.572;2024-03-23T07:58:44;11.27;;;3.15;;
4084;SDS011;2057;50.858;6.572;2024-03-23T08:01:13;14.93;;;3.77;;
4084;SDS011;2057;50.858;6.572;2024-03-23T08:03:45;19.48;;;3.92;;
4084;SDS011;2057;50.858;6.572;2024-03-23T08:06:20;10.23;;;4.20;;
4084;SDS011;2057;50.858;6.572;2024-03-23T08:08:57;18.80;;;5.43;;
4084;SDS011;2057;50.858;6.572;2024-03-23T08:11:41;20.75;;;5.43;;
4084;SDS011;2057;50.858;6.572;2024-03-23T08:14:12;25.33;;;6.60;;
4084;SDS011;2057;50.858;6.572;2024-03-23T08:16:39;21.88;;;6.90;;
4084;SDS011;2057;50.858;6.572;2024-03-23T08:19:06;20.35;;;9.38;;
4084;SDS011;2057;50.858;6.572;2024-03-23T08:21:33;27.17;;;8.15;;
4084;SDS011;2057;50.858;6.572;2024-03-23T08:24:01;15.55;;;8.65;;
4084;SDS011;2057;50.858;6.572;2024-03-23T08:26:31;20.08;;;9.60;;
4084;SDS011;2057;50.858;6.572;2024-03-23T08:28:59;27.45;;;10.98;;
4084;SDS011;2057;50.858;6.572;2024-03-23T08:31:24;33.93;;;10.67;;
4084;SDS011;2057;50.858;6.572;2024-03-23T08:33:49;23.57;;;9.90;;
4084;SDS011;2057;50.858;6.572;2024-03-23T08:36:15;38.37;;;9.53;;
4084;SDS011;2057;50.858;6.572;2024-03-23T08:38:40;32.97;;;7.60;;
4084;SDS011;2057;50.858;6.572;2024-03-23T08:41:06;29.70;;;7.50;;
4084;SDS011;2057;50.858;6.572;2024-03-23T08:43:35;21.73;;;7.80;;
4084;SDS011;2057;50.858;6.572;2024-03-23T08:46:12;31.00;;;8.18;;
4084;SDS011;2057;50.858;6.572;2024-03-23T08:48:44;20.40;;;7.18;;
4084;SDS011;2057;50.858;6.572;2024-03-23T08:51:11;24.93;;;6.37;;
4084;SDS011;2057;50.858;6.572;2024-03-23T08:53:44;21.30;;;7.00;;
4084;SDS011;2057;50.858;6.572;2024-03-23T08:56:13;23.90;;;6.57;;
4084;SDS011;2057;50.858;6.572;2024-03-23T08:58:38;29.27;;;7.20;;
4084;SDS011;2057;50.858;6.572;2024-03-23T09:03:42;16.57;;;5.00;;
4084;SDS011;2057;50.858;6.572;2024-03-23T09:06:15;16.45;;;5.40;;
4084;SDS011;2057;50.858;6.572;2024-03-23T09:08:43;18.48;;;4.30;;
4084;SDS011;2057;50.858;6.572;2024-03-23T09:11:16;41.85;;;5.55;;
4084;SDS011;2057;50.858;6.572;2024-03-23T09:13:41;19.80;;;4.20;;
4084;SDS011;2057;50.858;6.572;2024-03-23T09:16:07;23.70;;;5.70;;
4084;SDS011;2057;50.858;6.572;2024-03-23T09:18:35;19.85;;;5.10;;
4084;SDS011;2057;50.858;6.572;2024-03-23T09:21:03;31.30;;;6.20;;
4084;SDS011;2057;50.858;6.572;2024-03-23T09:23:38;14.50;;;4.10;;
4084;SDS011;2057;50.858;6.572;2024-03-23T09:26:11;25.00;;;4.60;;
4084;SDS011;2057;50.858;6.572;2024-03-23T09:28:37;14.63;;;4.67;;
4084;SDS011;2057;50.858;6.572;2024-03-23T09:31:08;19.83;;;3.90;;
4084;SDS011;2057;50.858;6.572;2024-03-23T09:33:39;15.25;;;3.42;;
4084;SDS011;2057;50.858;6.572;2024-03-23T09:36:04;19.63;;;4.13;;
4084;SDS011;2057;50.858;6.572;2024-03-23T09:38:30;8.83;;;3.10;;
4084;SDS011;2057;50.858;6.572;2024-03-23T09:40:56;10.83;;;3.60;;
4084;SDS011;2057;50.858;6.572;2024-03-23T09:43:27;33.30;;;4.33;;
4084;SDS011;2057;50.858;6.572;2024-03-23T09:45:55;25.13;;;3.40;;
4084;SDS011;2057;50.858;6.572;2024-03-23T09:48:20;13.73;;;3.83;;
4084;SDS011;2057;50.858;6.572;2024-03-23T09:53:19;16.57;;;4.00;;
4084;SDS011;2057;50.858;6.572;2024-03-23T09:55:44;20.53;;;4.00;;
4084;SDS011;2057;50.858;6.572;2024-03-23T10:00:59;13.60;;;2.87;;
4084;SDS011;2057;50.858;6.572;2024-03-23T10:03:24;11.17;;;2.83;;
4084;SDS011;2057;50.858;6.572;2024-03-23T10:05:59;9.40;;;3.70;;
4084;SDS011;2057;50.858;6.572;2024-03-23T10:08:31;21.93;;;3.23;;
4084;SDS011;2057;50.858;6.572;2024-03-23T10:10:58;14.40;;;2.93;;
4084;SDS011;2057;50.858;6.572;2024-03-23T10:13:38;7.23;;;2.47;;
4084;SDS011;2057;50.858;6.572;2024-03-23T10:16:11;7.40;;;2.73;;
4084;SDS011;2057;50.858;6.572;2024-03-23T10:18:39;8.23;;;2.00;;
4084;SDS011;2057;50.858;6.572;2024-03-23T10:21:09;11.67;;;2.90;;
4084;SDS011;2057;50.858;6.572;2024-03-23T10:23:36;13.88;;;2.45;;
4084;SDS011;2057;50.858;6.572;2024-03-23T10:26:12;7.57;;;2.30;;
4084;SDS011;2057;50.858;6.572;2024-03-23T10:28:43;9.77;;;3.13;;
4084;SDS011;2057;50.858;6.572;2024-03-23T10:31:29;7.20;;;2.30;;
4084;SDS011;2057;50.858;6.572;2024-03-23T10:33:58;10.07;;;2.17;;
4084;SDS011;2057;50.858;6.572;2024-03-23T10:36:34;3.92;;;1.65;;
4084;SDS011;2057;50.858;6.572;2024-03-23T10:39:16;6.57;;;1.95;;
4084;SDS011;2057;50.858;6.572;2024-03-23T10:41:42;17.87;;;2.27;;
4084;SDS011;2057;50.858;6.572;2024-03-23T10:44:11;16.60;;;2.83;;
4084;SDS011;2057;50.858;6.572;2024-03-23T10:46:39;6.80;;;2.27;;
4084;SDS011;2057;50.858;6.572;2024-03-23T10:49:22;14.03;;;3.73;;
4084;SDS011;2057;50.858;6.572;2024-03-23T10:51:55;14.57;;;3.93;;
4084;SDS011;2057;50.858;6.572;2024-03-23T10:54:27;6.60;;;2.00;;
4084;SDS011;2057;50.858;6.572;2024-03-23T10:57:06;9.97;;;2.10;;
4084;SDS011;2057;50.858;6.572;2024-03-23T10:59:37;21.37;;;3.50;;
4084;SDS011;2057;50.858;6.572;2024-03-23T11:02:17;15.73;;;3.40;;
4084;SDS011;2057;50.858;6.572;2024-03-23T11:04:53;12.13;;;2.77;;
4084;SDS011;2057;50.858;6.572;2024-03-23T11:07:35;15.77;;;3.00;;
4084;SDS011;2057;50.858;6.572;2024-03-23T11:10:00;17.43;;;3.77;;
4084;SDS011;2057;50.858;6.572;2024-03-23T11:12:28;6.73;;;2.80;;
4084;SDS011;2057;50.858;6.572;2024-03-23T11:15:01;15.83;;;3.60;;
4084;SDS011;2057;50.858;6.572;2024-03-23T11:17:27;11.47;;;4.37;;
4084;SDS011;2057;50.858;6.572;2024-03-23T11:19:53;19.67;;;5.53;;
4084;SDS011;2057;50.858;6.572;2024-03-23T11:22:43;12.93;;;4.30;;
4084;SDS011;2057;50.858;6.572;2024-03-23T11:27:45;17.77;;;3.57;;
4084;SDS011;2057;50.858;6.572;2024-03-23T11:30:18;11.53;;;3.00;;
4084;SDS011;2057;50.858;6.572;2024-03-23T11:32:47;7.03;;;2.87;;
4084;SDS011;2057;50.858;6.572;2024-03-23T11:35:26;16.23;;;2.53;;
4084;SDS011;2057;50.858;6.572;2024-03-23T11:40:46;12.03;;;2.70;;
4084;SDS011;2057;50.858;6.572;2024-03-23T11:43:17;8.83;;;2.60;;
4084;SDS011;2057;50.858;6.572;2024-03-23T11:48:20;14.30;;;2.97;;
4084;SDS011;2057;50.858;6.572;2024-03-23T11:50:47;10.40;;;2.97;;
4084;SDS011;2057;50.858;6.572;2024-03-23T11:53:23;9.10;;;2.37;;
4084;SDS011;2057;50.858;6.572;2024-03-23T11:55:53;8.53;;;3.40;;
4084;SDS011;2057;50.858;6.572;2024-03-23T11:58:23;9.87;;;2.80;;
4084;SDS011;2057;50.858;6.572;2024-03-23T12:00:55;11.23;;;3.40;;
4084;SDS011;2057;50.858;6.572;2024-03-23T12:03:25;15.70;;;4.10;;
4084;SDS011;2057;50.858;6.572;2024-03-23T12:05:53;16.00;;;3.37;;
4084;SDS011;2057;50.858;6.572;2024-03-23T12:08:39;5.97;;;2.47;;
4084;SDS011;2057;50.858;6.572;2024-03-23T12:13:39;6.63;;;1.77;;
4084;SDS011;2057;50.858;6.572;2024-03-23T12:16:18;9.23;;;1.50;;
4084;SDS011;2057;50.858;6.572;2024-03-23T12:18:49;5.37;;;1.33;;
4084;SDS011;2057;50.858;6.572;2024-03-23T12:21:16;5.75;;;1.17;;
4084;SDS011;2057;50.858;6.572;2024-03-23T12:23:42;4.47;;;1.35;;
4084;SDS011;2057;50.858;6.572;2024-03-23T12:26:13;7.95;;;1.13;;
4084;SDS011;2057;50.858;6.572;2024-03-23T12:28:45;3.63;;;1.08;;
4084;SDS011;2057;50.858;6.572;2024-03-23T12:31:13;0.95;;;0.95;;
4084;SDS011;2057;50.858;6.572;2024-03-23T12:33:41;5.85;;;1.75;;
4084;SDS011;2057;50.858;6.572;2024-03-23T12:36:14;3.63;;;1.60;;
4084;SDS011;2057;50.858;6.572;2024-03-23T12:38:40;2.47;;;1.30;;
4084;SDS011;2057;50.858;6.572;2024-03-23T12:41:10;2.22;;;1.40;;
4084;SDS011;2057;50.858;6.572;2024-03-23T12:43:41;5.47;;;1.20;;
4084;SDS011;2057;50.858;6.572;2024-03-23T12:46:09;5.63;;;1.83;;
4084;SDS011;2057;50.858;6.572;2024-03-23T12:48:52;6.82;;;1.40;;
4084;SDS011;2057;50.858;6.572;2024-03-23T12:51:18;4.23;;;1.17;;
4084;SDS011;2057;50.858;6.572;2024-03-23T12:53:48;13.77;;;3.45;;
4084;SDS011;2057;50.858;6.572;2024-03-23T12:56:13;3.33;;;1.60;;
4084;SDS011;2057;50.858;6.572;2024-03-23T12:58:42;6.15;;;1.88;;
4084;SDS011;2057;50.858;6.572;2024-03-23T13:01:15;5.25;;;1.90;;
4084;SDS011;2057;50.858;6.572;2024-03-23T13:03:54;5.83;;;2.03;;
4084;SDS011;2057;50.858;6.572;2024-03-23T13:06:36;14.73;;;1.60;;
4084;SDS011;2057;50.858;6.572;2024-03-23T13:09:04;5.60;;;2.00;;
4084;SDS011;2057;50.858;6.572;2024-03-23T13:11:32;9.90;;;2.73;;
4084;SDS011;2057;50.858;6.572;2024-03-23T13:14:05;10.23;;;2.53;;
4084;SDS011;2057;50.858;6.572;2024-03-23T13:16:33;14.30;;;3.77;;
4084;SDS011;2057;50.858;6.572;2024-03-23T13:19:03;9.70;;;2.83;;
4084;SDS011;2057;50.858;6.572;2024-03-23T13:21:29;4.53;;;2.30;;
4084;SDS011;2057;50.858;6.572;2024-03-23T13:23:57;13.33;;;3.03;;
4084;SDS011;2057;50.858;6.572;2024-03-23T13:26:22;10.03;;;2.07;;
4084;SDS011;2057;50.858;6.572;2024-03-23T13:28:47;5.53;;;2.40;;
4084;SDS011;2057;50.858;6.572;2024-03-23T13:31:22;17.70;;;3.80;;
4084;SDS011;2057;50.858;6.572;2024-03-23T13:33:49;10.03;;;2.67;;
4084;SDS011;2057;50.858;6.572;2024-03-23T13:36:14;7.80;;;2.90;;
4084;SDS011;2057;50.858;6.572;2024-03-23T13:38:42;7.80;;;2.13;;
4084;SDS011;2057;50.858;6.572;2024-03-23T13:41:10;3.67;;;1.80;;
4084;SDS011;2057;50.858;6.572;2024-03-23T13:43:37;4.70;;;1.83;;
4084;SDS011;2057;50.858;6.572;2024-03-23T13:46:05;10.27;;;2.08;;
4084;SDS011;2057;50.858;6.572;2024-03-23T13:48:31;3.63;;;1.80;;
4084;SDS011;2057;50.858;6.572;2024-03-23T13:51:13;2.17;;;1.58;;
4084;SDS011;2057;50.858;6.572;2024-03-23T13:53:41;9.07;;;1.95;;
4084;SDS011;2057;50.858;6.572;2024-03-23T13:56:06;5.93;;;2.50;;
4084;SDS011;2057;50.858;6.572;2024-03-23T13:58:36;4.22;;;2.22;;
4084;SDS011;2057;50.858;6.572;2024-03-23T14:01:04;5.05;;;2.30;;
4084;SDS011;2057;50.858;6.572;2024-03-23T14:03:38;8.05;;;2.10;;
4084;SDS011;2057;50.858;6.572;2024-03-23T14:06:06;12.52;;;2.22;;
4084;SDS011;2057;50.858;6.572;2024-03-23T14:08:35;12.77;;;2.28;;
4084;SDS011;2057;50.858;6.572;2024-03-23T14:11:04;8.38;;;2.53;;
4084;SDS011;2057;50.858;6.572;2024-03-23T14:13:30;9.63;;;2.30;;
4084;SDS011;2057;50.858;6.572;2024-03-23T14:15:58;4.07;;;1.83;;
4084;SDS011;2057;50.858;6.572;2024-03-23T14:18:29;6.23;;;2.40;;
4084;SDS011;2057;50.858;6.572;2024-03-23T14:20:58;5.40;;;2.37;;
4084;SDS011;2057;50.858;6.572;2024-03-23T14:23:32;7.80;;;2.67;;
4084;SDS011;2057;50.858;6.572;2024-03-23T14:26:02;6.47;;;2.73;;
4084;SDS011;2057;50.858;6.572;2024-03-23T14:28:35;4.20;;;2.27;;
4084;SDS011;2057;50.858;6.572;2024-03-23T14:31:06;10.43;;;2.43;;
4084;SDS011;2057;50.858;6.572;2024-03-23T14:33:37;6.20;;;2.70;;
4084;SDS011;2057;50.858;6.572;2024-03-23T14:36:11;5.87;;;3.30;;
4084;SDS011;2057;50.858;6.572;2024-03-23T14:38:36;8.10;;;1.70;;
4084;SDS011;2057;50.858;6.572;2024-03-23T14:41:01;3.07;;;1.47;;
4084;SDS011;2057;50.858;6.572;2024-03-23T14:43:30;3.65;;;1.58;;
4084;SDS011;2057;50.858;6.572;2024-03-23T14:46:26;5.28;;;2.88;;
4084;SDS011;2057;50.858;6.572;2024-03-23T14:48:51;2.70;;;1.70;;
4084;SDS011;2057;50.858;6.572;2024-03-23T14:51:26;7.00;;;1.80;;
4084;SDS011;2057;50.858;6.572;2024-03-23T14:53:55;5.45;;;2.20;;
4084;SDS011;2057;50.858;6.572;2024-03-23T14:56:20;10.43;;;2.20;;
4084;SDS011;2057;50.858;6.572;2024-03-23T14:58:45;5.80;;;1.83;;
4084;SDS011;2057;50.858;6.572;2024-03-23T15:01:20;8.50;;;2.67;;
4084;SDS011;2057;50.858;6.572;2024-03-23T15:03:46;6.77;;;2.40;;
4084;SDS011;2057;50.858;6.572;2024-03-23T15:06:15;6.80;;;3.28;;
4084;SDS011;2057;50.858;6.572;2024-03-23T15:08:40;6.38;;;2.60;;
4084;SDS011;2057;50.858;6.572;2024-03-23T15:11:06;4.97;;;2.10;;
4084;SDS011;2057;50.858;6.572;2024-03-23T15:13:38;6.57;;;2.38;;
4084;SDS011;2057;50.858;6.572;2024-03-23T15:16:06;6.25;;;2.78;;
4084;SDS011;2057;50.858;6.572;2024-03-23T15:18:37;11.38;;;2.47;;
4084;SDS011;2057;50.858;6.572;2024-03-23T15:21:04;4.80;;;1.88;;
4084;SDS011;2057;50.858;6.572;2024-03-23T15:23:34;4.40;;;1.90;;
4084;SDS011;2057;50.858;6.572;2024-03-23T15:26:01;2.83;;;1.88;;
4084;SDS011;2057;50.858;6.572;2024-03-23T15:28:27;16.30;;;1.90;;
4084;SDS011;2057;50.858;6.572;2024-03-23T15:31:27;12.55;;;2.15;;
4084;SDS011;2057;50.858;6.572;2024-03-23T15:33:52;16.00;;;2.23;;
4084;SDS011;2057;50.858;6.572;2024-03-23T15:36:17;8.40;;;2.03;;
4084;SDS011;2057;50.858;6.572;2024-03-23T15:38:45;9.00;;;3.13;;
4084;SDS011;2057;50.858;6.572;2024-03-23T15:41:14;2.30;;;1.93;;
4084;SDS011;2057;50.858;6.572;2024-03-23T15:43:39;9.93;;;3.53;;
4084;SDS011;2057;50.858;6.572;2024-03-23T15:46:12;3.10;;;1.97;;
4084;SDS011;2057;50.858;6.572;2024-03-23T15:48:39;3.70;;;2.33;;
4084;SDS011;2057;50.858;6.572;2024-03-23T15:51:04;3.27;;;1.57;;
4084;SDS011;2057;50.858;6.572;2024-03-23T15:53:45;3.35;;;1.80;;
4084;SDS011;2057;50.858;6.572;2024-03-23T15:56:15;6.13;;;2.30;;
4084;SDS011;2057;50.858;6.572;2024-03-23T15:58:40;1.73;;;1.10;;
4084;SDS011;2057;50.858;6.572;2024-03-23T16:01:08;1.48;;;1.35;;
4084;SDS011;2057;50.858;6.572;2024-03-23T16:03:37;3.60;;;2.10;;
4084;SDS011;2057;50.858;6.572;2024-03-23T16:06:10;2.92;;;1.88;;
4084;SDS011;2057;50.858;6.572;2024-03-23T16:08:36;5.70;;;2.07;;
4084;SDS011;2057;50.858;6.572;2024-03-23T16:11:10;1.98;;;1.15;;
4084;SDS011;2057;50.858;6.572;2024-03-23T16:13:38;9.40;;;3.10;;
4084;SDS011;2057;50.858;6.572;2024-03-23T16:16:11;4.97;;;2.15;;
4084;SDS011;2057;50.858;6.572;2024-03-23T16:18:38;12.52;;;4.50;;
4084;SDS011;2057;50.858;6.572;2024-03-23T16:21:06;4.47;;;2.25;;
4084;SDS011;2057;50.858;6.572;2024-03-23T16:23:33;12.68;;;1.70;;
4084;SDS011;2057;50.858;6.572;2024-03-23T16:25:59;4.47;;;2.33;;
4084;SDS011;2057;50.858;6.572;2024-03-23T16:28:32;7.82;;;2.42;;
4084;SDS011;2057;50.858;6.572;2024-03-23T16:31:05;3.45;;;2.08;;